Accueil
METAR-TAF:

METAR-TAF

Aéroports :

Aéroport de Francfort-Hahn

Hahn, Allemagne

latitude: 49-57N, longitude: 007-16E, altitude: 491 m

Observation

Le bulletin a été fait il y a 26 minutes, à 21:50 UTC
Vent 2 kt de sud-est
Température 18°C
Humidité 49%
Pression 1026 hPa
Visibilité 10 km ou plus
pas de nuages en-dessous de 1500 mètres et pas de cumulonimbus.

METAR: EDFH 222150Z 13002KT CAVOK 18/07 Q1026

Heure: 00:16 (22:16 UTC)

Prévision

Le bulletin a été fait il y a 5 heures et 16 minutes, à 17:00 UTC
Prévision valable du 22 à 18 UTC au 23 à 18 UTC
Vent 4 kt de est
Visibilité 10 km ou plus
pas de nuages en-dessous de 1500 mètres et pas de cumulonimbus.

TAF: EDFH 221700Z 2218/2318 08004KT CAVOK

Observations et prévisions météorologiques de plus de 4000 aéroports (messages METAR et TAF).

Les stations disponibles sont représentées par des disques jaunes et rouges sur la carte.

Passer la souris dessus pour voir le nom de la station.

Cliquer dessus pour voir les observations et prévisions météorologiques.

Pour changer de carte: cliquez sur les boutons verts avec une croix noire pour zoomer, sur le bouton vert avec un tiret pour effectuer un zoom arrière, ou sur les flèches vertes pour les cartes adjacentes.


METAR-TAF: